sensor_id;sensor_type;location;lat;lon;timestamp;P1;durP1;ratioP1;P2;durP2;ratioP2
24030;SDS011;12240;51.142;22.486;2023-06-26T00:00:13;6.68;;;2.67;;
24030;SDS011;12240;51.142;22.486;2023-06-26T00:02:42;4.85;;;2.83;;
24030;SDS011;12240;51.142;22.486;2023-06-26T00:05:10;5.70;;;2.75;;
24030;SDS011;12240;51.142;22.486;2023-06-26T00:07:38;5.03;;;2.78;;
24030;SDS011;12240;51.142;22.486;2023-06-26T00:10:06;8.57;;;3.40;;
24030;SDS011;12240;51.142;22.486;2023-06-26T00:12:34;8.13;;;2.80;;
24030;SDS011;12240;51.142;22.486;2023-06-26T00:15:04;5.60;;;2.70;;
24030;SDS011;12240;51.142;22.486;2023-06-26T00:17:35;5.43;;;2.90;;
24030;SDS011;12240;51.142;22.486;2023-06-26T00:20:05;5.60;;;3.15;;
24030;SDS011;12240;51.142;22.486;2023-06-26T00:22:38;12.65;;;3.42;;
24030;SDS011;12240;51.142;22.486;2023-06-26T00:25:09;6.18;;;3.38;;
24030;SDS011;12240;51.142;22.486;2023-06-26T00:27:37;7.85;;;3.25;;
24030;SDS011;12240;51.142;22.486;2023-06-26T00:30:05;5.32;;;3.30;;
24030;SDS011;12240;51.142;22.486;2023-06-26T00:32:34;7.32;;;3.20;;
24030;SDS011;12240;51.142;22.486;2023-06-26T00:35:05;8.00;;;3.20;;
24030;SDS011;12240;51.142;22.486;2023-06-26T00:37:33;8.15;;;3.53;;
24030;SDS011;12240;51.142;22.486;2023-06-26T00:40:01;10.55;;;3.70;;
24030;SDS011;12240;51.142;22.486;2023-06-26T00:42:32;8.93;;;3.67;;
24030;SDS011;12240;51.142;22.486;2023-06-26T00:45:00;7.43;;;3.45;;
24030;SDS011;12240;51.142;22.486;2023-06-26T00:47:29;11.48;;;3.35;;
24030;SDS011;12240;51.142;22.486;2023-06-26T00:49:58;7.38;;;3.45;;
24030;SDS011;12240;51.142;22.486;2023-06-26T00:52:26;8.35;;;3.95;;
24030;SDS011;12240;51.142;22.486;2023-06-26T00:54:55;10.95;;;4.50;;
24030;SDS011;12240;51.142;22.486;2023-06-26T00:57:24;11.20;;;4.28;;
24030;SDS011;12240;51.142;22.486;2023-06-26T00:59:53;8.57;;;3.97;;
24030;SDS011;12240;51.142;22.486;2023-06-26T01:02:21;8.23;;;3.85;;
24030;SDS011;12240;51.142;22.486;2023-06-26T01:04:50;12.27;;;3.95;;
24030;SDS011;12240;51.142;22.486;2023-06-26T01:07:19;10.75;;;4.05;;
24030;SDS011;12240;51.142;22.486;2023-06-26T01:09:49;12.10;;;3.80;;
24030;SDS011;12240;51.142;22.486;2023-06-26T01:12:17;8.07;;;3.40;;
24030;SDS011;12240;51.142;22.486;2023-06-26T01:14:48;11.35;;;3.70;;
24030;SDS011;12240;51.142;22.486;2023-06-26T01:17:17;9.30;;;3.58;;
24030;SDS011;12240;51.142;22.486;2023-06-26T01:19:46;9.90;;;3.97;;
24030;SDS011;12240;51.142;22.486;2023-06-26T01:22:27;7.45;;;3.85;;
24030;SDS011;12240;51.142;22.486;2023-06-26T01:28:21;6.60;;;3.33;;
24030;SDS011;12240;51.142;22.486;2023-06-26T01:30:51;8.48;;;3.65;;
24030;SDS011;12240;51.142;22.486;2023-06-26T01:33:22;8.20;;;3.47;;
24030;SDS011;12240;51.142;22.486;2023-06-26T01:35:51;12.13;;;3.70;;
24030;SDS011;12240;51.142;22.486;2023-06-26T01:38:20;7.47;;;3.60;;
24030;SDS011;12240;51.142;22.486;2023-06-26T01:40:55;6.25;;;3.70;;
24030;SDS011;12240;51.142;22.486;2023-06-26T01:46:24;10.00;;;3.55;;
24030;SDS011;12240;51.142;22.486;2023-06-26T01:51:51;8.07;;;4.18;;
24030;SDS011;12240;51.142;22.486;2023-06-26T01:54:37;8.10;;;3.90;;
24030;SDS011;12240;51.142;22.486;2023-06-26T01:57:32;8.93;;;3.95;;
24030;SDS011;12240;51.142;22.486;2023-06-26T02:00:03;10.13;;;4.15;;
24030;SDS011;12240;51.142;22.486;2023-06-26T02:06:36;9.18;;;3.83;;
24030;SDS011;12240;51.142;22.486;2023-06-26T02:09:05;10.20;;;3.90;;
24030;SDS011;12240;51.142;22.486;2023-06-26T02:11:33;10.85;;;4.15;;
24030;SDS011;12240;51.142;22.486;2023-06-26T02:14:01;9.18;;;4.15;;
24030;SDS011;12240;51.142;22.486;2023-06-26T02:16:30;11.52;;;4.18;;
24030;SDS011;12240;51.142;22.486;2023-06-26T02:18:58;8.63;;;3.83;;
24030;SDS011;12240;51.142;22.486;2023-06-26T02:21:26;9.20;;;4.40;;
24030;SDS011;12240;51.142;22.486;2023-06-26T02:23:56;12.95;;;4.53;;
24030;SDS011;12240;51.142;22.486;2023-06-26T02:26:24;9.10;;;3.83;;
24030;SDS011;12240;51.142;22.486;2023-06-26T02:28:52;9.27;;;4.35;;
24030;SDS011;12240;51.142;22.486;2023-06-26T02:31:20;14.95;;;5.20;;
24030;SDS011;12240;51.142;22.486;2023-06-26T02:33:48;11.85;;;5.10;;
24030;SDS011;12240;51.142;22.486;2023-06-26T02:36:16;8.70;;;3.55;;
24030;SDS011;12240;51.142;22.486;2023-06-26T02:38:44;7.00;;;3.63;;
24030;SDS011;12240;51.142;22.486;2023-06-26T02:41:12;9.35;;;3.78;;
24030;SDS011;12240;51.142;22.486;2023-06-26T02:43:41;8.55;;;3.63;;
24030;SDS011;12240;51.142;22.486;2023-06-26T02:46:09;10.43;;;4.20;;
24030;SDS011;12240;51.142;22.486;2023-06-26T02:48:37;7.80;;;3.95;;
24030;SDS011;12240;51.142;22.486;2023-06-26T02:51:05;10.13;;;3.90;;
24030;SDS011;12240;51.142;22.486;2023-06-26T02:53:35;8.77;;;3.42;;
24030;SDS011;12240;51.142;22.486;2023-06-26T02:56:04;7.97;;;3.78;;
24030;SDS011;12240;51.142;22.486;2023-06-26T02:58:34;11.25;;;3.90;;
24030;SDS011;12240;51.142;22.486;2023-06-26T03:01:02;7.20;;;3.42;;
24030;SDS011;12240;51.142;22.486;2023-06-26T03:03:30;8.40;;;3.95;;
24030;SDS011;12240;51.142;22.486;2023-06-26T03:06:11;8.95;;;3.92;;
24030;SDS011;12240;51.142;22.486;2023-06-26T03:08:40;14.27;;;4.30;;
24030;SDS011;12240;51.142;22.486;2023-06-26T03:11:08;10.23;;;4.28;;
24030;SDS011;12240;51.142;22.486;2023-06-26T03:13:38;10.88;;;4.18;;
24030;SDS011;12240;51.142;22.486;2023-06-26T03:16:06;8.73;;;4.57;;
24030;SDS011;12240;51.142;22.486;2023-06-26T03:18:35;8.93;;;4.05;;
24030;SDS011;12240;51.142;22.486;2023-06-26T03:21:03;11.00;;;4.03;;
24030;SDS011;12240;51.142;22.486;2023-06-26T03:23:31;12.13;;;4.70;;
24030;SDS011;12240;51.142;22.486;2023-06-26T03:25:59;9.27;;;4.30;;
24030;SDS011;12240;51.142;22.486;2023-06-26T03:30:58;7.40;;;4.18;;
24030;SDS011;12240;51.142;22.486;2023-06-26T03:33:27;10.68;;;4.20;;
24030;SDS011;12240;51.142;22.486;2023-06-26T03:35:56;7.60;;;3.42;;
24030;SDS011;12240;51.142;22.486;2023-06-26T03:38:24;9.57;;;3.83;;
24030;SDS011;12240;51.142;22.486;2023-06-26T03:40:56;12.00;;;4.28;;
24030;SDS011;12240;51.142;22.486;2023-06-26T03:43:24;11.60;;;3.92;;
24030;SDS011;12240;51.142;22.486;2023-06-26T03:46:03;13.65;;;4.40;;
24030;SDS011;12240;51.142;22.486;2023-06-26T03:48:32;13.15;;;3.88;;
24030;SDS011;12240;51.142;22.486;2023-06-26T03:51:00;13.57;;;3.90;;
24030;SDS011;12240;51.142;22.486;2023-06-26T03:53:29;11.80;;;4.30;;
24030;SDS011;12240;51.142;22.486;2023-06-26T03:55:57;12.65;;;4.82;;
24030;SDS011;12240;51.142;22.486;2023-06-26T03:58:25;11.10;;;3.97;;
24030;SDS011;12240;51.142;22.486;2023-06-26T04:00:53;10.32;;;3.67;;
24030;SDS011;12240;51.142;22.486;2023-06-26T04:03:23;12.15;;;4.38;;
24030;SDS011;12240;51.142;22.486;2023-06-26T04:05:51;10.15;;;4.05;;
24030;SDS011;12240;51.142;22.486;2023-06-26T04:08:19;9.43;;;4.18;;
24030;SDS011;12240;51.142;22.486;2023-06-26T04:10:48;10.60;;;4.65;;
24030;SDS011;12240;51.142;22.486;2023-06-26T04:13:19;10.88;;;4.00;;
24030;SDS011;12240;51.142;22.486;2023-06-26T04:15:47;6.45;;;3.42;;
24030;SDS011;12240;51.142;22.486;2023-06-26T04:18:15;7.88;;;4.18;;
24030;SDS011;12240;51.142;22.486;2023-06-26T04:23:34;13.77;;;4.60;;
24030;SDS011;12240;51.142;22.486;2023-06-26T04:26:03;14.43;;;4.07;;
24030;SDS011;12240;51.142;22.486;2023-06-26T04:28:32;12.40;;;5.00;;
24030;SDS011;12240;51.142;22.486;2023-06-26T04:31:02;9.48;;;4.68;;
24030;SDS011;12240;51.142;22.486;2023-06-26T04:33:30;11.05;;;5.40;;
24030;SDS011;12240;51.142;22.486;2023-06-26T04:35:58;12.02;;;4.80;;
24030;SDS011;12240;51.142;22.486;2023-06-26T04:38:31;12.38;;;4.50;;
24030;SDS011;12240;51.142;22.486;2023-06-26T04:41:00;18.90;;;5.30;;
24030;SDS011;12240;51.142;22.486;2023-06-26T04:43:29;9.13;;;4.70;;
24030;SDS011;12240;51.142;22.486;2023-06-26T04:45:57;15.65;;;5.20;;
24030;SDS011;12240;51.142;22.486;2023-06-26T04:48:25;10.10;;;4.60;;
24030;SDS011;12240;51.142;22.486;2023-06-26T04:50:58;12.85;;;5.05;;
24030;SDS011;12240;51.142;22.486;2023-06-26T04:53:26;13.05;;;5.35;;
24030;SDS011;12240;51.142;22.486;2023-06-26T04:55:54;12.63;;;5.70;;
24030;SDS011;12240;51.142;22.486;2023-06-26T04:58:22;12.55;;;5.10;;
24030;SDS011;12240;51.142;22.486;2023-06-26T05:00:50;9.20;;;5.30;;
24030;SDS011;12240;51.142;22.486;2023-06-26T05:03:19;10.25;;;5.30;;
24030;SDS011;12240;51.142;22.486;2023-06-26T05:05:47;16.10;;;5.53;;
24030;SDS011;12240;51.142;22.486;2023-06-26T05:08:22;10.60;;;5.43;;
24030;SDS011;12240;51.142;22.486;2023-06-26T05:10:53;10.52;;;5.57;;
24030;SDS011;12240;51.142;22.486;2023-06-26T05:13:25;12.60;;;5.13;;
24030;SDS011;12240;51.142;22.486;2023-06-26T05:15:53;15.15;;;5.40;;
24030;SDS011;12240;51.142;22.486;2023-06-26T05:18:21;10.63;;;5.55;;
24030;SDS011;12240;51.142;22.486;2023-06-26T05:20:49;10.48;;;5.45;;
24030;SDS011;12240;51.142;22.486;2023-06-26T05:23:18;13.77;;;5.53;;
24030;SDS011;12240;51.142;22.486;2023-06-26T05:25:46;10.38;;;5.45;;
24030;SDS011;12240;51.142;22.486;2023-06-26T05:28:15;7.43;;;4.80;;
24030;SDS011;12240;51.142;22.486;2023-06-26T05:30:43;12.18;;;5.40;;
24030;SDS011;12240;51.142;22.486;2023-06-26T05:33:12;12.77;;;5.55;;
24030;SDS011;12240;51.142;22.486;2023-06-26T05:35:44;9.90;;;5.25;;
24030;SDS011;12240;51.142;22.486;2023-06-26T05:38:13;9.57;;;5.10;;
24030;SDS011;12240;51.142;22.486;2023-06-26T05:40:42;9.73;;;4.95;;
24030;SDS011;12240;51.142;22.486;2023-06-26T05:43:11;10.75;;;5.47;;
24030;SDS011;12240;51.142;22.486;2023-06-26T05:45:40;7.30;;;4.70;;
24030;SDS011;12240;51.142;22.486;2023-06-26T05:48:08;11.55;;;5.05;;
24030;SDS011;12240;51.142;22.486;2023-06-26T05:50:37;11.27;;;4.80;;
24030;SDS011;12240;51.142;22.486;2023-06-26T05:53:06;8.70;;;4.60;;
24030;SDS011;12240;51.142;22.486;2023-06-26T05:55:35;7.75;;;4.70;;
24030;SDS011;12240;51.142;22.486;2023-06-26T05:58:03;9.23;;;4.30;;
24030;SDS011;12240;51.142;22.486;2023-06-26T06:00:32;5.13;;;3.80;;
24030;SDS011;12240;51.142;22.486;2023-06-26T06:03:01;6.72;;;4.40;;
24030;SDS011;12240;51.142;22.486;2023-06-26T06:05:30;6.95;;;4.55;;
24030;SDS011;12240;51.142;22.486;2023-06-26T06:07:58;11.52;;;4.13;;
24030;SDS011;12240;51.142;22.486;2023-06-26T06:10:27;10.68;;;3.80;;
24030;SDS011;12240;51.142;22.486;2023-06-26T06:12:55;8.02;;;3.45;;
24030;SDS011;12240;51.142;22.486;2023-06-26T06:15:24;10.60;;;3.97;;
24030;SDS011;12240;51.142;22.486;2023-06-26T06:17:54;6.60;;;3.75;;
24030;SDS011;12240;51.142;22.486;2023-06-26T06:20:22;6.78;;;3.80;;
24030;SDS011;12240;51.142;22.486;2023-06-26T06:22:52;7.07;;;3.20;;
24030;SDS011;12240;51.142;22.486;2023-06-26T06:25:20;7.40;;;3.53;;
24030;SDS011;12240;51.142;22.486;2023-06-26T06:27:48;6.63;;;3.63;;
24030;SDS011;12240;51.142;22.486;2023-06-26T06:30:16;7.15;;;3.20;;
24030;SDS011;12240;51.142;22.486;2023-06-26T06:32:55;6.40;;;3.33;;
24030;SDS011;12240;51.142;22.486;2023-06-26T06:35:23;6.50;;;3.08;;
24030;SDS011;12240;51.142;22.486;2023-06-26T06:37:56;8.45;;;3.45;;
24030;SDS011;12240;51.142;22.486;2023-06-26T06:40:24;4.47;;;2.70;;
24030;SDS011;12240;51.142;22.486;2023-06-26T06:42:53;3.47;;;2.40;;
24030;SDS011;12240;51.142;22.486;2023-06-26T06:45:21;4.82;;;2.55;;
24030;SDS011;12240;51.142;22.486;2023-06-26T06:47:49;5.75;;;2.35;;
24030;SDS011;12240;51.142;22.486;2023-06-26T06:50:17;4.72;;;2.30;;
24030;SDS011;12240;51.142;22.486;2023-06-26T06:52:45;4.20;;;2.20;;
24030;SDS011;12240;51.142;22.486;2023-06-26T06:55:13;5.22;;;2.00;;
24030;SDS011;12240;51.142;22.486;2023-06-26T06:57:41;4.68;;;2.17;;
24030;SDS011;12240;51.142;22.486;2023-06-26T07:00:10;4.93;;;1.90;;
24030;SDS011;12240;51.142;22.486;2023-06-26T07:02:42;3.83;;;1.95;;
24030;SDS011;12240;51.142;22.486;2023-06-26T07:05:12;3.00;;;1.70;;
24030;SDS011;12240;51.142;22.486;2023-06-26T07:07:40;3.45;;;1.88;;
24030;SDS011;12240;51.142;22.486;2023-06-26T07:10:09;6.00;;;2.10;;
24030;SDS011;12240;51.142;22.486;2023-06-26T07:12:39;4.13;;;2.38;;
24030;SDS011;12240;51.142;22.486;2023-06-26T07:15:07;3.53;;;2.25;;
24030;SDS011;12240;51.142;22.486;2023-06-26T07:17:36;3.42;;;2.40;;
24030;SDS011;12240;51.142;22.486;2023-06-26T07:20:07;4.68;;;2.38;;
24030;SDS011;12240;51.142;22.486;2023-06-26T07:22:37;5.28;;;2.20;;
24030;SDS011;12240;51.142;22.486;2023-06-26T07:25:06;9.30;;;2.33;;
24030;SDS011;12240;51.142;22.486;2023-06-26T07:27:38;3.00;;;1.98;;
24030;SDS011;12240;51.142;22.486;2023-06-26T07:30:07;5.95;;;2.45;;
24030;SDS011;12240;51.142;22.486;2023-06-26T07:32:37;5.22;;;2.35;;
24030;SDS011;12240;51.142;22.486;2023-06-26T07:35:06;3.03;;;2.15;;
24030;SDS011;12240;51.142;22.486;2023-06-26T07:37:34;3.22;;;2.13;;
24030;SDS011;12240;51.142;22.486;2023-06-26T07:40:03;6.28;;;2.30;;
24030;SDS011;12240;51.142;22.486;2023-06-26T07:42:31;3.40;;;2.25;;
24030;SDS011;12240;51.142;22.486;2023-06-26T07:44:59;3.15;;;2.35;;
24030;SDS011;12240;51.142;22.486;2023-06-26T07:47:27;4.57;;;2.30;;
24030;SDS011;12240;51.142;22.486;2023-06-26T07:49:56;3.65;;;2.10;;
24030;SDS011;12240;51.142;22.486;2023-06-26T07:52:24;3.75;;;2.30;;
24030;SDS011;12240;51.142;22.486;2023-06-26T07:54:52;3.70;;;2.20;;
24030;SDS011;12240;51.142;22.486;2023-06-26T07:57:21;2.38;;;1.92;;
24030;SDS011;12240;51.142;22.486;2023-06-26T07:59:49;5.65;;;1.92;;
24030;SDS011;12240;51.142;22.486;2023-06-26T08:02:18;3.97;;;1.98;;
24030;SDS011;12240;51.142;22.486;2023-06-26T08:04:46;3.00;;;1.63;;
24030;SDS011;12240;51.142;22.486;2023-06-26T08:07:14;3.75;;;2.10;;
24030;SDS011;12240;51.142;22.486;2023-06-26T08:09:42;2.97;;;2.00;;
24030;SDS011;12240;51.142;22.486;2023-06-26T08:12:11;4.55;;;2.22;;
24030;SDS011;12240;51.142;22.486;2023-06-26T08:14:39;5.40;;;1.98;;
24030;SDS011;12240;51.142;22.486;2023-06-26T08:17:07;2.75;;;1.98;;
24030;SDS011;12240;51.142;22.486;2023-06-26T08:19:36;4.57;;;1.90;;
24030;SDS011;12240;51.142;22.486;2023-06-26T08:22:05;2.53;;;1.85;;
24030;SDS011;12240;51.142;22.486;2023-06-26T08:24:33;1.90;;;1.48;;
24030;SDS011;12240;51.142;22.486;2023-06-26T08:27:02;2.20;;;1.70;;
24030;SDS011;12240;51.142;22.486;2023-06-26T08:29:30;6.32;;;1.95;;
24030;SDS011;12240;51.142;22.486;2023-06-26T08:31:59;3.22;;;2.00;;
24030;SDS011;12240;51.142;22.486;2023-06-26T08:34:29;2.17;;;1.80;;
24030;SDS011;12240;51.142;22.486;2023-06-26T08:36:57;5.25;;;1.83;;
24030;SDS011;12240;51.142;22.486;2023-06-26T08:39:26;3.10;;;1.90;;
24030;SDS011;12240;51.142;22.486;2023-06-26T08:41:54;2.38;;;1.60;;
24030;SDS011;12240;51.142;22.486;2023-06-26T08:44:22;4.15;;;1.63;;
24030;SDS011;12240;51.142;22.486;2023-06-26T08:46:52;3.08;;;1.88;;
24030;SDS011;12240;51.142;22.486;2023-06-26T08:49:21;2.70;;;2.20;;
24030;SDS011;12240;51.142;22.486;2023-06-26T08:52:13;2.22;;;1.63;;
24030;SDS011;12240;51.142;22.486;2023-06-26T08:54:58;3.22;;;1.42;;
24030;SDS011;12240;51.142;22.486;2023-06-26T08:57:29;2.50;;;1.80;;
24030;SDS011;12240;51.142;22.486;2023-06-26T08:59:59;2.60;;;1.83;;
24030;SDS011;12240;51.142;22.486;2023-06-26T09:02:27;4.28;;;2.00;;
24030;SDS011;12240;51.142;22.486;2023-06-26T09:04:56;3.20;;;1.92;;
24030;SDS011;12240;51.142;22.486;2023-06-26T09:07:24;2.50;;;1.92;;
24030;SDS011;12240;51.142;22.486;2023-06-26T09:09:53;4.25;;;2.00;;
24030;SDS011;12240;51.142;22.486;2023-06-26T09:12:21;2.67;;;1.83;;
24030;SDS011;12240;51.142;22.486;2023-06-26T09:14:49;3.15;;;1.80;;
24030;SDS011;12240;51.142;22.486;2023-06-26T09:17:18;3.97;;;1.80;;
24030;SDS011;12240;51.142;22.486;2023-06-26T09:19:46;2.72;;;1.83;;
24030;SDS011;12240;51.142;22.486;2023-06-26T09:22:16;4.40;;;2.20;;
24030;SDS011;12240;51.142;22.486;2023-06-26T09:24:44;3.35;;;2.00;;
24030;SDS011;12240;51.142;22.486;2023-06-26T09:27:13;2.10;;;1.70;;
24030;SDS011;12240;51.142;22.486;2023-06-26T09:29:45;4.65;;;2.10;;
24030;SDS011;12240;51.142;22.486;2023-06-26T09:32:14;3.80;;;1.92;;
24030;SDS011;12240;51.142;22.486;2023-06-26T09:34:43;3.78;;;2.25;;
24030;SDS011;12240;51.142;22.486;2023-06-26T09:37:12;4.63;;;2.17;;
24030;SDS011;12240;51.142;22.486;2023-06-26T09:39:41;2.22;;;1.73;;
24030;SDS011;12240;51.142;22.486;2023-06-26T09:42:15;3.53;;;1.85;;
24030;SDS011;12240;51.142;22.486;2023-06-26T09:44:47;3.35;;;2.08;;
24030;SDS011;12240;51.142;22.486;2023-06-26T09:47:16;2.80;;;1.92;;
24030;SDS011;12240;51.142;22.486;2023-06-26T09:49:52;3.67;;;1.80;;
24030;SDS011;12240;51.142;22.486;2023-06-26T09:52:25;2.88;;;2.08;;
24030;SDS011;12240;51.142;22.486;2023-06-26T09:55:09;2.78;;;1.65;;
24030;SDS011;12240;51.142;22.486;2023-06-26T09:57:38;4.38;;;2.10;;
24030;SDS011;12240;51.142;22.486;2023-06-26T10:00:08;3.60;;;2.40;;
24030;SDS011;12240;51.142;22.486;2023-06-26T10:02:40;4.25;;;2.03;;
24030;SDS011;12240;51.142;22.486;2023-06-26T10:05:09;2.42;;;1.85;;
24030;SDS011;12240;51.142;22.486;2023-06-26T10:07:37;3.28;;;2.00;;
24030;SDS011;12240;51.142;22.486;2023-06-26T10:10:06;4.43;;;1.88;;
24030;SDS011;12240;51.142;22.486;2023-06-26T10:12:36;2.70;;;2.00;;
24030;SDS011;12240;51.142;22.486;2023-06-26T10:15:04;3.97;;;2.10;;
24030;SDS011;12240;51.142;22.486;2023-06-26T10:17:39;3.22;;;2.00;;
24030;SDS011;12240;51.142;22.486;2023-06-26T10:20:11;2.75;;;2.10;;
24030;SDS011;12240;51.142;22.486;2023-06-26T10:22:44;2.10;;;1.77;;
24030;SDS011;12240;51.142;22.486;2023-06-26T10:25:16;3.28;;;1.88;;
24030;SDS011;12240;51.142;22.486;2023-06-26T10:27:51;3.47;;;2.25;;
24030;SDS011;12240;51.142;22.486;2023-06-26T10:30:28;3.28;;;2.10;;
24030;SDS011;12240;51.142;22.486;2023-06-26T10:33:00;3.53;;;2.28;;
24030;SDS011;12240;51.142;22.486;2023-06-26T10:35:31;2.92;;;1.90;;
24030;SDS011;12240;51.142;22.486;2023-06-26T10:38:00;4.10;;;2.15;;
24030;SDS011;12240;51.142;22.486;2023-06-26T10:40:44;5.10;;;2.40;;
24030;SDS011;12240;51.142;22.486;2023-06-26T10:43:15;3.78;;;2.03;;
24030;SDS011;12240;51.142;22.486;2023-06-26T10:45:46;3.22;;;2.03;;
24030;SDS011;12240;51.142;22.486;2023-06-26T10:48:23;4.00;;;2.25;;
24030;SDS011;12240;51.142;22.486;2023-06-26T10:50:56;3.50;;;2.10;;
24030;SDS011;12240;51.142;22.486;2023-06-26T10:53:25;4.05;;;2.38;;
24030;SDS011;12240;51.142;22.486;2023-06-26T10:56:03;4.13;;;2.17;;
24030;SDS011;12240;51.142;22.486;2023-06-26T11:04:17;2.20;;;2.00;;
24030;SDS011;12240;51.142;22.486;2023-06-26T11:06:44;5.45;;;2.35;;
24030;SDS011;12240;51.142;22.486;2023-06-26T11:09:17;3.08;;;2.20;;
24030;SDS011;12240;51.142;22.486;2023-06-26T11:14:20;3.13;;;2.05;;
24030;SDS011;12240;51.142;22.486;2023-06-26T11:16:50;5.72;;;2.78;;
24030;SDS011;12240;51.142;22.486;2023-06-26T11:19:20;4.25;;;2.25;;
24030;SDS011;12240;51.142;22.486;2023-06-26T11:21:48;3.63;;;2.70;;
24030;SDS011;12240;51.142;22.486;2023-06-26T11:24:17;5.82;;;3.08;;
24030;SDS011;12240;51.142;22.486;2023-06-26T11:26:46;4.25;;;2.72;;
24030;SDS011;12240;51.142;22.486;2023-06-26T11:29:15;3.05;;;2.20;;
24030;SDS011;12240;51.142;22.486;2023-06-26T11:31:43;5.07;;;2.63;;
24030;SDS011;12240;51.142;22.486;2023-06-26T11:34:12;3.08;;;2.47;;
24030;SDS011;12240;51.142;22.486;2023-06-26T11:36:42;3.00;;;2.53;;
24030;SDS011;12240;51.142;22.486;2023-06-26T11:39:13;3.15;;;2.63;;
24030;SDS011;12240;51.142;22.486;2023-06-26T11:41:42;3.10;;;2.70;;
24030;SDS011;12240;51.142;22.486;2023-06-26T11:44:13;4.28;;;3.17;;
24030;SDS011;12240;51.142;22.486;2023-06-26T11:46:47;7.00;;;2.92;;
24030;SDS011;12240;51.142;22.486;2023-06-26T11:49:22;4.40;;;2.75;;
24030;SDS011;12240;51.142;22.486;2023-06-26T11:51:52;4.35;;;2.75;;
24030;SDS011;12240;51.142;22.486;2023-06-26T11:54:24;4.22;;;2.78;;
24030;SDS011;12240;51.142;22.486;2023-06-26T11:56:55;3.75;;;2.75;;
24030;SDS011;12240;51.142;22.486;2023-06-26T12:02:07;4.53;;;2.83;;
24030;SDS011;12240;51.142;22.486;2023-06-26T12:04:38;3.80;;;2.70;;
24030;SDS011;12240;51.142;22.486;2023-06-26T12:07:11;4.53;;;3.15;;
24030;SDS011;12240;51.142;22.486;2023-06-26T12:09:42;4.97;;;3.25;;
24030;SDS011;12240;51.142;22.486;2023-06-26T12:12:14;5.40;;;3.20;;
24030;SDS011;12240;51.142;22.486;2023-06-26T12:14:45;5.28;;;3.08;;
24030;SDS011;12240;51.142;22.486;2023-06-26T12:17:14;4.95;;;3.13;;
24030;SDS011;12240;51.142;22.486;2023-06-26T12:19:44;4.78;;;3.10;;
24030;SDS011;12240;51.142;22.486;2023-06-26T12:22:18;7.68;;;3.00;;
24030;SDS011;12240;51.142;22.486;2023-06-26T12:24:47;4.70;;;3.25;;
24030;SDS011;12240;51.142;22.486;2023-06-26T12:27:17;5.80;;;3.65;;
24030;SDS011;12240;51.142;22.486;2023-06-26T12:29:50;6.78;;;3.42;;
24030;SDS011;12240;51.142;22.486;2023-06-26T12:32:24;6.20;;;3.70;;
24030;SDS011;12240;51.142;22.486;2023-06-26T12:34:55;5.55;;;3.58;;
24030;SDS011;12240;51.142;22.486;2023-06-26T12:39:54;7.95;;;3.92;;
24030;SDS011;12240;51.142;22.486;2023-06-26T12:42:25;5.35;;;3.78;;
24030;SDS011;12240;51.142;22.486;2023-06-26T12:45:09;4.45;;;3.50;;
24030;SDS011;12240;51.142;22.486;2023-06-26T12:48:06;6.88;;;3.80;;
24030;SDS011;12240;51.142;22.486;2023-06-26T12:50:44;4.78;;;3.80;;
24030;SDS011;12240;51.142;22.486;2023-06-26T12:53:13;5.22;;;3.53;;
24030;SDS011;12240;51.142;22.486;2023-06-26T12:55:41;4.78;;;3.30;;
24030;SDS011;12240;51.142;22.486;2023-06-26T12:58:09;6.10;;;3.38;;
24030;SDS011;12240;51.142;22.486;2023-06-26T13:00:38;6.05;;;4.15;;
24030;SDS011;12240;51.142;22.486;2023-06-26T13:03:09;6.50;;;4.35;;
24030;SDS011;12240;51.142;22.486;2023-06-26T13:05:38;6.20;;;4.20;;
24030;SDS011;12240;51.142;22.486;2023-06-26T13:08:06;6.50;;;3.85;;
24030;SDS011;12240;51.142;22.486;2023-06-26T13:10:35;7.43;;;3.38;;
24030;SDS011;12240;51.142;22.486;2023-06-26T13:13:04;5.32;;;3.60;;
24030;SDS011;12240;51.142;22.486;2023-06-26T13:15:33;5.30;;;3.55;;
24030;SDS011;12240;51.142;22.486;2023-06-26T13:18:01;5.28;;;3.10;;
24030;SDS011;12240;51.142;22.486;2023-06-26T13:20:30;6.82;;;3.90;;
24030;SDS011;12240;51.142;22.486;2023-06-26T13:22:58;4.97;;;3.58;;
24030;SDS011;12240;51.142;22.486;2023-06-26T13:25:27;5.80;;;3.60;;
24030;SDS011;12240;51.142;22.486;2023-06-26T13:27:55;5.18;;;3.90;;
24030;SDS011;12240;51.142;22.486;2023-06-26T13:30:23;4.55;;;3.35;;
24030;SDS011;12240;51.142;22.486;2023-06-26T13:32:52;9.18;;;4.30;;
24030;SDS011;12240;51.142;22.486;2023-06-26T13:35:21;6.90;;;3.72;;
24030;SDS011;12240;51.142;22.486;2023-06-26T13:37:49;5.47;;;3.70;;
24030;SDS011;12240;51.142;22.486;2023-06-26T13:40:17;4.90;;;3.40;;
24030;SDS011;12240;51.142;22.486;2023-06-26T13:42:45;5.75;;;3.17;;
24030;SDS011;12240;51.142;22.486;2023-06-26T13:45:14;5.30;;;3.42;;
24030;SDS011;12240;51.142;22.486;2023-06-26T13:47:57;5.10;;;3.17;;
24030;SDS011;12240;51.142;22.486;2023-06-26T13:50:26;8.38;;;3.80;;
24030;SDS011;12240;51.142;22.486;2023-06-26T13:53:14;5.20;;;3.17;;
24030;SDS011;12240;51.142;22.486;2023-06-26T13:55:42;4.07;;;3.00;;
24030;SDS011;12240;51.142;22.486;2023-06-26T13:58:11;6.03;;;3.40;;
24030;SDS011;12240;51.142;22.486;2023-06-26T14:00:40;4.88;;;3.20;;
24030;SDS011;12240;51.142;22.486;2023-06-26T14:03:12;6.50;;;3.63;;
24030;SDS011;12240;51.142;22.486;2023-06-26T14:05:40;4.53;;;3.25;;
24030;SDS011;12240;51.142;22.486;2023-06-26T14:08:09;6.53;;;2.92;;
24030;SDS011;12240;51.142;22.486;2023-06-26T14:10:37;3.88;;;3.08;;
24030;SDS011;12240;51.142;22.486;2023-06-26T14:13:07;6.70;;;2.97;;
24030;SDS011;12240;51.142;22.486;2023-06-26T14:15:36;5.63;;;2.90;;
24030;SDS011;12240;51.142;22.486;2023-06-26T14:18:06;5.03;;;2.42;;
24030;SDS011;12240;51.142;22.486;2023-06-26T14:20:34;4.35;;;2.72;;
24030;SDS011;12240;51.142;22.486;2023-06-26T14:23:04;5.10;;;2.53;;
24030;SDS011;12240;51.142;22.486;2023-06-26T14:25:32;4.72;;;2.75;;
24030;SDS011;12240;51.142;22.486;2023-06-26T14:28:00;5.60;;;2.72;;
24030;SDS011;12240;51.142;22.486;2023-06-26T14:30:28;4.63;;;2.50;;
24030;SDS011;12240;51.142;22.486;2023-06-26T14:32:56;3.80;;;2.60;;
24030;SDS011;12240;51.142;22.486;2023-06-26T14:35:24;4.18;;;2.60;;
24030;SDS011;12240;51.142;22.486;2023-06-26T14:37:53;4.55;;;2.58;;
24030;SDS011;12240;51.142;22.486;2023-06-26T14:40:21;7.95;;;2.33;;
24030;SDS011;12240;51.142;22.486;2023-06-26T14:42:50;4.45;;;2.90;;
24030;SDS011;12240;51.142;22.486;2023-06-26T14:45:20;6.30;;;2.63;;
24030;SDS011;12240;51.142;22.486;2023-06-26T14:47:49;5.68;;;3.22;;
24030;SDS011;12240;51.142;22.486;2023-06-26T14:50:18;5.10;;;2.53;;
24030;SDS011;12240;51.142;22.486;2023-06-26T14:52:47;6.25;;;2.72;;
24030;SDS011;12240;51.142;22.486;2023-06-26T14:55:15;3.25;;;2.20;;
24030;SDS011;12240;51.142;22.486;2023-06-26T14:57:43;3.88;;;2.60;;
24030;SDS011;12240;51.142;22.486;2023-06-26T15:00:12;4.63;;;2.58;;
24030;SDS011;12240;51.142;22.486;2023-06-26T15:02:41;6.68;;;2.50;;
24030;SDS011;12240;51.142;22.486;2023-06-26T15:05:09;4.88;;;2.38;;
24030;SDS011;12240;51.142;22.486;2023-06-26T15:07:37;4.28;;;2.70;;
24030;SDS011;12240;51.142;22.486;2023-06-26T15:10:06;5.00;;;2.63;;
24030;SDS011;12240;51.142;22.486;2023-06-26T15:12:34;4.95;;;2.42;;
24030;SDS011;12240;51.142;22.486;2023-06-26T15:15:03;7.28;;;2.25;;
24030;SDS011;12240;51.142;22.486;2023-06-26T15:17:34;6.18;;;2.30;;